sensor_id;sensor_type;location;lat;lon;timestamp;pressure;altitude;pressure_sealevel;temperature;humidity
79752;BME280;69234;47.446;21.636;2023-04-25T00:00:24;99525.44;;;12.58;86.81
79752;BME280;69234;47.446;21.636;2023-04-25T00:00:55;99518.19;;;12.58;87.73
79752;BME280;69234;47.446;21.636;2023-04-25T00:01:27;99527.28;;;12.57;86.58
79752;BME280;69234;47.446;21.636;2023-04-25T00:01:57;99525.56;;;12.56;87.38
79752;BME280;69234;47.446;21.636;2023-04-25T00:02:30;99520.88;;;12.58;86.88
79752;BME280;69234;47.446;21.636;2023-04-25T00:03:02;99525.44;;;12.58;87.07
79752;BME280;69234;47.446;21.636;2023-04-25T00:03:33;99522.22;;;12.54;87.71
79752;BME280;69234;47.446;21.636;2023-04-25T00:04:05;99515.31;;;12.52;87.76
79752;BME280;69234;47.446;21.636;2023-04-25T00:04:36;99515.13;;;12.53;87.21
79752;BME280;69234;47.446;21.636;2023-04-25T00:05:08;99519.53;;;12.54;86.80
79752;BME280;69234;47.446;21.636;2023-04-25T00:05:40;99513.44;;;12.52;87.53
79752;BME280;69234;47.446;21.636;2023-04-25T00:06:10;99514.47;;;12.51;87.68
79752;BME280;69234;47.446;21.636;2023-04-25T00:06:41;99515.31;;;12.52;87.21
79752;BME280;69234;47.446;21.636;2023-04-25T00:07:12;99516.97;;;12.53;87.54
79752;BME280;69234;47.446;21.636;2023-04-25T00:07:43;99508.25;;;12.51;87.72
79752;BME280;69234;47.446;21.636;2023-04-25T00:08:13;99511.91;;;12.50;86.96
79752;BME280;69234;47.446;21.636;2023-04-25T00:08:44;99518.16;;;12.50;88.05
79752;BME280;69234;47.446;21.636;2023-04-25T00:09:15;99515.31;;;12.52;87.01
79752;BME280;69234;47.446;21.636;2023-04-25T00:09:45;99513.63;;;12.51;87.76
79752;BME280;69234;47.446;21.636;2023-04-25T00:10:16;99506.53;;;12.50;87.69
79752;BME280;69234;47.446;21.636;2023-04-25T00:10:47;99509.06;;;12.51;87.23
79752;BME280;69234;47.446;21.636;2023-04-25T00:11:19;99505.53;;;12.51;87.80
79752;BME280;69234;47.446;21.636;2023-04-25T00:11:50;99511.91;;;12.50;87.50
79752;BME280;69234;47.446;21.636;2023-04-25T00:12:20;99503.69;;;12.51;87.84
79752;BME280;69234;47.446;21.636;2023-04-25T00:12:53;99503.69;;;12.51;87.05
79752;BME280;69234;47.446;21.636;2023-04-25T00:13:24;99509.06;;;12.51;87.71
79752;BME280;69234;47.446;21.636;2023-04-25T00:13:55;99511.06;;;12.49;87.32
79752;BME280;69234;47.446;21.636;2023-04-25T00:14:27;99505.69;;;12.49;88.05
79752;BME280;69234;47.446;21.636;2023-04-25T00:14:58;99507.38;;;12.50;87.33
79752;BME280;69234;47.446;21.636;2023-04-25T00:15:30;99508.25;;;12.51;87.68
79752;BME280;69234;47.446;21.636;2023-04-25T00:16:01;99510.75;;;12.52;87.30
79752;BME280;69234;47.446;21.636;2023-04-25T00:16:33;99513.44;;;12.52;87.90
79752;BME280;69234;47.446;21.636;2023-04-25T00:17:05;99505.69;;;12.49;86.89
79752;BME280;69234;47.446;21.636;2023-04-25T00:17:36;99506.72;;;12.48;87.64
79752;BME280;69234;47.446;21.636;2023-04-25T00:18:08;99506.84;;;12.47;87.75
79752;BME280;69234;47.446;21.636;2023-04-25T00:18:39;99502.34;;;12.47;87.79
79752;BME280;69234;47.446;21.636;2023-04-25T00:19:10;99498.13;;;12.45;87.18
79752;BME280;69234;47.446;21.636;2023-04-25T00:19:41;99505.69;;;12.49;87.34
79752;BME280;69234;47.446;21.636;2023-04-25T00:20:12;99508.38;;;12.49;87.82
79752;BME280;69234;47.446;21.636;2023-04-25T00:20:43;99506.72;;;12.48;87.20
79752;BME280;69234;47.446;21.636;2023-04-25T00:21:18;99506.03;;;12.46;88.14
79752;BME280;69234;47.446;21.636;2023-04-25T00:21:50;99503.50;;;12.45;88.21
79752;BME280;69234;47.446;21.636;2023-04-25T00:22:21;99506.34;;;12.43;87.61
79752;BME280;69234;47.446;21.636;2023-04-25T00:22:51;99498.13;;;12.45;87.42
79752;BME280;69234;47.446;21.636;2023-04-25T00:23:23;99506.03;;;12.46;87.91
79752;BME280;69234;47.446;21.636;2023-04-25T00:23:55;99508.72;;;12.46;87.11
79752;BME280;69234;47.446;21.636;2023-04-25T00:24:26;99507.88;;;12.46;87.20
79752;BME280;69234;47.446;21.636;2023-04-25T00:24:57;99505.88;;;12.48;87.94
79752;BME280;69234;47.446;21.636;2023-04-25T00:25:30;99500.63;;;12.46;88.00
79752;BME280;69234;47.446;21.636;2023-04-25T00:26:01;99498.97;;;12.45;87.12
79752;BME280;69234;47.446;21.636;2023-04-25T00:26:35;99498.97;;;12.45;86.96
79752;BME280;69234;47.446;21.636;2023-04-25T00:27:06;99498.97;;;12.45;87.88
79752;BME280;69234;47.446;21.636;2023-04-25T00:27:37;99502.66;;;12.44;88.01
79752;BME280;69234;47.446;21.636;2023-04-25T00:28:09;99497.28;;;12.44;87.69
79752;BME280;69234;47.446;21.636;2023-04-25T00:28:40;99498.44;;;12.42;88.15
79752;BME280;69234;47.446;21.636;2023-04-25T00:29:11;99500.28;;;12.41;87.35
79752;BME280;69234;47.446;21.636;2023-04-25T00:29:42;99495.22;;;12.38;88.30
79752;BME280;69234;47.446;21.636;2023-04-25T00:30:14;99495.41;;;12.36;87.87
79752;BME280;69234;47.446;21.636;2023-04-25T00:30:45;99497.09;;;12.37;87.84
79752;BME280;69234;47.446;21.636;2023-04-25T00:31:15;99491.69;;;12.37;87.46
79752;BME280;69234;47.446;21.636;2023-04-25T00:31:46;99494.53;;;12.36;88.08
79752;BME280;69234;47.446;21.636;2023-04-25T00:32:17;99493.88;;;12.34;87.69
79752;BME280;69234;47.446;21.636;2023-04-25T00:32:48;99491.00;;;12.35;87.81
79752;BME280;69234;47.446;21.636;2023-04-25T00:33:19;99492.72;;;12.36;88.22
79752;BME280;69234;47.446;21.636;2023-04-25T00:33:50;99488.84;;;12.39;87.48
79752;BME280;69234;47.446;21.636;2023-04-25T00:34:20;99491.53;;;12.39;88.43
79752;BME280;69234;47.446;21.636;2023-04-25T00:34:51;99494.22;;;12.39;88.53
79752;BME280;69234;47.446;21.636;2023-04-25T00:35:22;99489.16;;;12.36;87.74
79752;BME280;69234;47.446;21.636;2023-04-25T00:35:53;99496.25;;;12.37;88.60
79752;BME280;69234;47.446;21.636;2023-04-25T00:36:23;99496.41;;;12.35;88.54
79752;BME280;69234;47.446;21.636;2023-04-25T00:36:54;99486.47;;;12.36;87.81
79752;BME280;69234;47.446;21.636;2023-04-25T00:37:25;99488.00;;;12.38;88.36
79752;BME280;69234;47.446;21.636;2023-04-25T00:37:56;99499.59;;;12.39;87.72
79752;BME280;69234;47.446;21.636;2023-04-25T00:38:27;99495.22;;;12.38;88.35
79752;BME280;69234;47.446;21.636;2023-04-25T00:38:58;99490.88;;;12.37;87.69
79752;BME280;69234;47.446;21.636;2023-04-25T00:39:28;99490.88;;;12.37;88.47
79752;BME280;69234;47.446;21.636;2023-04-25T00:39:59;99495.22;;;12.38;87.61
79752;BME280;69234;47.446;21.636;2023-04-25T00:40:30;99490.88;;;12.37;88.70
79752;BME280;69234;47.446;21.636;2023-04-25T00:41:01;99490.16;;;12.35;88.67
79752;BME280;69234;47.446;21.636;2023-04-25T00:41:32;99487.16;;;12.38;87.79
79752;BME280;69234;47.446;21.636;2023-04-25T00:42:03;99497.94;;;12.38;88.05
79752;BME280;69234;47.446;21.636;2023-04-25T00:42:37;99486.47;;;12.36;88.58
79752;BME280;69234;47.446;21.636;2023-04-25T00:43:08;99485.47;;;12.37;87.72
79752;BME280;69234;47.446;21.636;2023-04-25T00:43:40;99484.63;;;12.36;88.57
79752;BME280;69234;47.446;21.636;2023-04-25T00:44:11;99482.94;;;12.35;88.35
79752;BME280;69234;47.446;21.636;2023-04-25T00:44:43;99489.34;;;12.34;88.27
79752;BME280;69234;47.446;21.636;2023-04-25T00:45:15;99492.19;;;12.33;88.28
79752;BME280;69234;47.446;21.636;2023-04-25T00:45:47;99490.50;;;12.32;88.49
79752;BME280;69234;47.446;21.636;2023-04-25T00:46:21;99485.44;;;12.29;88.59
79752;BME280;69234;47.446;21.636;2023-04-25T00:46:52;99487.28;;;12.28;87.75
79752;BME280;69234;47.446;21.636;2023-04-25T00:47:43;99489.84;;;12.30;88.26
79752;BME280;69234;47.446;21.636;2023-04-25T00:48:14;99486.13;;;12.31;88.38
79752;BME280;69234;47.446;21.636;2023-04-25T00:48:45;99483.44;;;12.31;88.92
79752;BME280;69234;47.446;21.636;2023-04-25T00:49:16;99493.19;;;12.32;88.12
79752;BME280;69234;47.446;21.636;2023-04-25T00:49:47;99485.13;;;12.32;88.71
79752;BME280;69234;47.446;21.636;2023-04-25T00:50:18;99485.13;;;12.32;87.79
79752;BME280;69234;47.446;21.636;2023-04-25T00:50:54;99489.84;;;12.30;87.73
79752;BME280;69234;47.446;21.636;2023-04-25T00:51:26;99485.28;;;12.30;88.66
79752;BME280;69234;47.446;21.636;2023-04-25T00:51:58;99488.66;;;12.32;87.88
79752;BME280;69234;47.446;21.636;2023-04-25T00:52:29;99483.25;;;12.32;88.13
79752;BME280;69234;47.446;21.636;2023-04-25T00:53:00;99489.47;;;12.33;88.13
79752;BME280;69234;47.446;21.636;2023-04-25T00:53:32;99486.63;;;12.34;88.16
79752;BME280;69234;47.446;21.636;2023-04-25T00:54:03;99485.13;;;12.32;88.50
79752;BME280;69234;47.446;21.636;2023-04-25T00:54:34;99483.78;;;12.36;88.82
79752;BME280;69234;47.446;21.636;2023-04-25T00:55:05;99491.84;;;12.36;88.33
79752;BME280;69234;47.446;21.636;2023-04-25T00:55:36;99486.78;;;12.33;88.51
79752;BME280;69234;47.446;21.636;2023-04-25T00:56:07;99481.41;;;12.33;87.92
79752;BME280;69234;47.446;21.636;2023-04-25T00:56:39;99483.13;;;12.34;87.88
79752;BME280;69234;47.446;21.636;2023-04-25T00:57:09;99489.16;;;12.36;88.26
79752;BME280;69234;47.446;21.636;2023-04-25T00:57:42;99478.38;;;12.36;88.38
79752;BME280;69234;47.446;21.636;2023-04-25T00:58:13;99487.16;;;12.38;88.32
79752;BME280;69234;47.446;21.636;2023-04-25T00:58:44;99481.06;;;12.36;88.68
79752;BME280;69234;47.446;21.636;2023-04-25T00:59:15;99482.09;;;12.35;88.10
79752;BME280;69234;47.446;21.636;2023-04-25T00:59:48;99485.47;;;12.37;88.86
79752;BME280;69234;47.446;21.636;2023-04-25T01:00:21;99485.81;;;12.34;87.84
79752;BME280;69234;47.446;21.636;2023-04-25T01:00:52;99481.25;;;12.34;88.48
79752;BME280;69234;47.446;21.636;2023-04-25T01:01:23;99485.81;;;12.34;87.84
79752;BME280;69234;47.446;21.636;2023-04-25T01:01:54;99488.31;;;12.35;88.48
79752;BME280;69234;47.446;21.636;2023-04-25T01:02:25;99480.75;;;12.31;88.79
79752;BME280;69234;47.446;21.636;2023-04-25T01:02:58;99481.41;;;12.33;88.99
79752;BME280;69234;47.446;21.636;2023-04-25T01:03:35;99483.78;;;12.36;88.10
79752;BME280;69234;47.446;21.636;2023-04-25T01:04:11;99486.97;;;12.31;87.73
79752;BME280;69234;47.446;21.636;2023-04-25T01:04:42;99479.72;;;12.32;88.38
79752;BME280;69234;47.446;21.636;2023-04-25T01:05:12;99487.47;;;12.35;88.25
79752;BME280;69234;47.446;21.636;2023-04-25T01:05:44;99486.47;;;12.36;88.85
79752;BME280;69234;47.446;21.636;2023-04-25T01:06:14;99483.78;;;12.36;88.12
79752;BME280;69234;47.446;21.636;2023-04-25T01:06:48;99477.03;;;12.32;88.32
79752;BME280;69234;47.446;21.636;2023-04-25T01:07:19;99482.94;;;12.35;88.54
79752;BME280;69234;47.446;21.636;2023-04-25T01:07:51;99490.16;;;12.35;88.44
79752;BME280;69234;47.446;21.636;2023-04-25T01:08:24;99484.09;;;12.33;87.94
79752;BME280;69234;47.446;21.636;2023-04-25T01:08:57;99489.16;;;12.36;88.39
79752;BME280;69234;47.446;21.636;2023-04-25T01:09:30;99479.25;;;12.36;87.86
79752;BME280;69234;47.446;21.636;2023-04-25T01:10:03;99482.59;;;12.38;88.26
79752;BME280;69234;47.446;21.636;2023-04-25T01:10:34;99485.47;;;12.37;88.14
79752;BME280;69234;47.446;21.636;2023-04-25T01:11:06;99482.09;;;12.35;88.19
79752;BME280;69234;47.446;21.636;2023-04-25T01:11:37;99480.25;;;12.35;87.80
79752;BME280;69234;47.446;21.636;2023-04-25T01:12:07;99478.25;;;12.37;88.47
79752;BME280;69234;47.446;21.636;2023-04-25T01:12:39;99482.59;;;12.38;88.27
79752;BME280;69234;47.446;21.636;2023-04-25T01:13:10;99483.44;;;12.39;88.56
79752;BME280;69234;47.446;21.636;2023-04-25T01:13:41;99481.59;;;12.40;88.74
79752;BME280;69234;47.446;21.636;2023-04-25T01:14:12;99483.63;;;12.37;88.21
79752;BME280;69234;47.446;21.636;2023-04-25T01:14:42;99482.78;;;12.37;88.02
79752;BME280;69234;47.446;21.636;2023-04-25T01:15:13;99486.31;;;12.37;88.81
79752;BME280;69234;47.446;21.636;2023-04-25T01:15:44;99485.47;;;12.37;88.73
79752;BME280;69234;47.446;21.636;2023-04-25T01:16:15;99483.78;;;12.36;88.56
79752;BME280;69234;47.446;21.636;2023-04-25T01:16:46;99481.06;;;12.36;88.24
79752;BME280;69234;47.446;21.636;2023-04-25T01:17:18;99477.41;;;12.37;88.54
79752;BME280;69234;47.446;21.636;2023-04-25T01:17:49;99483.28;;;12.41;88.60
79752;BME280;69234;47.446;21.636;2023-04-25T01:18:20;99484.13;;;12.41;87.72
79752;BME280;69234;47.446;21.636;2023-04-25T01:18:51;99476.06;;;12.41;88.54
79752;BME280;69234;47.446;21.636;2023-04-25T01:19:23;99477.91;;;12.41;88.18
79752;BME280;69234;47.446;21.636;2023-04-25T01:19:54;99481.25;;;12.43;88.06
79752;BME280;69234;47.446;21.636;2023-04-25T01:20:26;99479.75;;;12.40;87.46
79752;BME280;69234;47.446;21.636;2023-04-25T01:21:17;99489.53;;;12.41;87.97
79752;BME280;69234;47.446;21.636;2023-04-25T01:21:48;99479.75;;;12.40;88.01
79752;BME280;69234;47.446;21.636;2023-04-25T01:22:19;99488.69;;;12.41;87.76
79752;BME280;69234;47.446;21.636;2023-04-25T01:22:52;99479.75;;;12.40;87.61
79752;BME280;69234;47.446;21.636;2023-04-25T01:23:23;99477.72;;;12.42;87.94
79752;BME280;69234;47.446;21.636;2023-04-25T01:23:55;99484.78;;;12.43;88.03
79752;BME280;69234;47.446;21.636;2023-04-25T01:24:27;99481.25;;;12.43;88.23
79752;BME280;69234;47.446;21.636;2023-04-25T01:25:00;99472.66;;;12.39;87.45
79752;BME280;69234;47.446;21.636;2023-04-25T01:25:31;99477.72;;;12.42;88.05
79752;BME280;69234;47.446;21.636;2023-04-25T01:26:03;99483.13;;;12.42;87.04
79752;BME280;69234;47.446;21.636;2023-04-25T01:26:35;99480.75;;;12.39;87.51
79752;BME280;69234;47.446;21.636;2023-04-25T01:27:06;99478.56;;;12.43;88.30
79752;BME280;69234;47.446;21.636;2023-04-25T01:27:37;99478.56;;;12.43;87.71
79752;BME280;69234;47.446;21.636;2023-04-25T01:28:08;99474.91;;;12.44;87.61
79752;BME280;69234;47.446;21.636;2023-04-25T01:28:40;99481.13;;;12.44;87.52
79752;BME280;69234;47.446;21.636;2023-04-25T01:29:20;99481.13;;;12.44;87.91
79752;BME280;69234;47.446;21.636;2023-04-25T01:29:51;99477.72;;;12.42;87.88
79752;BME280;69234;47.446;21.636;2023-04-25T01:30:22;99488.50;;;12.42;87.54
79752;BME280;69234;47.446;21.636;2023-04-25T01:30:53;99480.44;;;12.42;87.42
79752;BME280;69234;47.446;21.636;2023-04-25T01:31:26;99473.50;;;12.40;88.12
79752;BME280;69234;47.446;21.636;2023-04-25T01:31:59;99479.06;;;12.38;87.54
79752;BME280;69234;47.446;21.636;2023-04-25T01:32:31;99480.75;;;12.39;87.39
79752;BME280;69234;47.446;21.636;2023-04-25T01:33:09;99480.09;;;12.37;87.51
79752;BME280;69234;47.446;21.636;2023-04-25T01:33:40;99476.72;;;12.35;88.42
79752;BME280;69234;47.446;21.636;2023-04-25T01:34:12;99472.47;;;12.32;88.68
79752;BME280;69234;47.446;21.636;2023-04-25T01:34:43;99479.41;;;12.35;88.46
79752;BME280;69234;47.446;21.636;2023-04-25T01:35:14;99478.56;;;12.34;87.53
79752;BME280;69234;47.446;21.636;2023-04-25T01:35:45;99475.03;;;12.34;88.37
79752;BME280;69234;47.446;21.636;2023-04-25T01:36:17;99472.81;;;12.29;88.26
79752;BME280;69234;47.446;21.636;2023-04-25T01:36:49;99478.72;;;12.33;87.63
79752;BME280;69234;47.446;21.636;2023-04-25T01:37:21;99474.84;;;12.27;88.33
79752;BME280;69234;47.446;21.636;2023-04-25T01:37:51;99470.13;;;12.29;88.09
79752;BME280;69234;47.446;21.636;2023-04-25T01:38:22;99480.75;;;12.31;88.37
79752;BME280;69234;47.446;21.636;2023-04-25T01:38:53;99472.28;;;12.26;88.15
79752;BME280;69234;47.446;21.636;2023-04-25T01:39:26;99467.09;;;12.24;88.04
79752;BME280;69234;47.446;21.636;2023-04-25T01:39:57;99463.22;;;12.27;88.01
79752;BME280;69234;47.446;21.636;2023-04-25T01:40:28;99464.56;;;12.23;87.66
79752;BME280;69234;47.446;21.636;2023-04-25T01:40:59;99465.25;;;12.25;87.96
79752;BME280;69234;47.446;21.636;2023-04-25T01:41:30;99461.88;;;12.23;88.93
79752;BME280;69234;47.446;21.636;2023-04-25T01:42:00;99464.41;;;12.24;88.67
79752;BME280;69234;47.446;21.636;2023-04-25T01:42:33;99465.25;;;12.25;88.39
79752;BME280;69234;47.446;21.636;2023-04-25T01:43:04;99468.09;;;12.23;87.98
79752;BME280;69234;47.446;21.636;2023-04-25T01:43:35;99465.56;;;12.22;88.61
79752;BME280;69234;47.446;21.636;2023-04-25T01:44:06;99470.09;;;12.21;88.40
79752;BME280;69234;47.446;21.636;2023-04-25T01:44:37;99471.78;;;12.22;88.78
79752;BME280;69234;47.446;21.636;2023-04-25T01:45:11;99465.56;;;12.22;88.58
79752;BME280;69234;47.446;21.636;2023-04-25T01:45:42;99460.16;;;12.22;87.85
79752;BME280;69234;47.446;21.636;2023-04-25T01:46:14;99461.19;;;12.21;87.75
79752;BME280;69234;47.446;21.636;2023-04-25T01:46:45;99462.22;;;12.20;88.69
79752;BME280;69234;47.446;21.636;2023-04-25T01:47:16;99462.88;;;12.22;88.73
79752;BME280;69234;47.446;21.636;2023-04-25T01:47:47;99464.91;;;12.20;88.58
79752;BME280;69234;47.446;21.636;2023-04-25T01:48:20;99460.50;;;12.19;88.67
79752;BME280;69234;47.446;21.636;2023-04-25T01:48:51;99463.50;;;12.16;88.12
79752;BME280;69234;47.446;21.636;2023-04-25T01:49:22;99467.75;;;12.18;88.83
79752;BME280;69234;47.446;21.636;2023-04-25T01:49:54;99463.38;;;12.17;89.07
79752;BME280;69234;47.446;21.636;2023-04-25T01:50:25;99456.31;;;12.16;89.07
79752;BME280;69234;47.446;21.636;2023-04-25T01:50:56;99459.31;;;12.13;88.11
79752;BME280;69234;47.446;21.636;2023-04-25T01:51:27;99459.47;;;12.11;89.24
79752;BME280;69234;47.446;21.636;2023-04-25T01:51:58;99456.97;;;12.10;89.12
79752;BME280;69234;47.446;21.636;2023-04-25T01:52:30;99458.63;;;12.11;88.86
79752;BME280;69234;47.446;21.636;2023-04-25T01:53:01;99464.00;;;12.11;88.60
79752;BME280;69234;47.446;21.636;2023-04-25T01:53:32;99463.50;;;12.07;89.40
79752;BME280;69234;47.446;21.636;2023-04-25T01:54:05;99457.09;;;12.08;88.56
79752;BME280;69234;47.446;21.636;2023-04-25T01:54:36;99459.66;;;12.10;89.50
79752;BME280;69234;47.446;21.636;2023-04-25T01:55:07;99463.50;;;12.07;88.46
79752;BME280;69234;47.446;21.636;2023-04-25T01:55:40;99453.75;;;12.06;89.49
79752;BME280;69234;47.446;21.636;2023-04-25T01:56:15;99458.28;;;12.06;88.66
79752;BME280;69234;47.446;21.636;2023-04-25T01:56:51;99457.09;;;12.08;89.55
79752;BME280;69234;47.446;21.636;2023-04-25T01:57:22;99464.84;;;12.11;88.60
79752;BME280;69234;47.446;21.636;2023-04-25T01:57:53;99465.88;;;12.10;88.99
79752;BME280;69234;47.446;21.636;2023-04-25T01:58:30;99459.78;;;12.08;88.52
79752;BME280;69234;47.446;21.636;2023-04-25T01:59:07;99467.34;;;12.05;89.18
79752;BME280;69234;47.446;21.636;2023-04-25T02:00:03;99452.22;;;12.04;88.77
79752;BME280;69234;47.446;21.636;2023-04-25T02:00:43;99458.28;;;12.06;88.57
79752;BME280;69234;47.446;21.636;2023-04-25T02:01:15;99459.28;;;12.05;89.44
79752;BME280;69234;47.446;21.636;2023-04-25T02:01:52;99455.09;;;12.02;88.65
79752;BME280;69234;47.446;21.636;2023-04-25T02:02:30;99455.59;;;12.06;89.41
79752;BME280;69234;47.446;21.636;2023-04-25T02:03:00;99454.59;;;12.07;88.54
79752;BME280;69234;47.446;21.636;2023-04-25T02:03:35;99453.06;;;12.04;89.14
79752;BME280;69234;47.446;21.636;2023-04-25T02:04:08;99457.59;;;12.04;88.49
79752;BME280;69234;47.446;21.636;2023-04-25T02:04:41;99455.75;;;12.04;88.63
79752;BME280;69234;47.446;21.636;2023-04-25T02:05:12;99455.09;;;12.02;88.67
79752;BME280;69234;47.446;21.636;2023-04-25T02:05:44;99448.00;;;12.01;88.84
79752;BME280;69234;47.446;21.636;2023-04-25T02:06:16;99453.38;;;12.01;89.02
79752;BME280;69234;47.446;21.636;2023-04-25T02:06:49;99455.41;;;11.99;89.19
79752;BME280;69234;47.446;21.636;2023-04-25T02:07:20;99457.91;;;12.01;89.20
79752;BME280;69234;47.446;21.636;2023-04-25T02:07:55;99446.63;;;11.97;89.39
79752;BME280;69234;47.446;21.636;2023-04-25T02:08:29;99449.50;;;11.96;88.98
79752;BME280;69234;47.446;21.636;2023-04-25T02:09:00;99450.66;;;11.93;89.23
79752;BME280;69234;47.446;21.636;2023-04-25T02:09:31;99452.53;;;11.93;89.78
79752;BME280;69234;47.446;21.636;2023-04-25T02:10:03;99449.97;;;11.91;90.01
79752;BME280;69234;47.446;21.636;2023-04-25T02:10:37;99450.84;;;11.92;89.19
79752;BME280;69234;47.446;21.636;2023-04-25T02:11:19;99454.38;;;11.92;89.27
79752;BME280;69234;47.446;21.636;2023-04-25T02:12:04;99449.66;;;11.94;89.33
79752;BME280;69234;47.446;21.636;2023-04-25T02:12:45;99450.66;;;11.93;89.20
79752;BME280;69234;47.446;21.636;2023-04-25T02:13:33;99454.38;;;11.92;89.35
79752;BME280;69234;47.446;21.636;2023-04-25T02:14:22;99448.16;;;11.92;89.73
79752;BME280;69234;47.446;21.636;2023-04-25T02:15:12;99448.16;;;11.92;88.82
79752;BME280;69234;47.446;21.636;2023-04-25T02:15:47;99450.66;;;11.93;88.77
79752;BME280;69234;47.446;21.636;2023-04-25T02:16:20;99454.38;;;11.92;89.21
79752;BME280;69234;47.446;21.636;2023-04-25T02:16:51;99448.16;;;11.92;89.85
79752;BME280;69234;47.446;21.636;2023-04-25T02:17:22;99446.13;;;11.94;89.59
79752;BME280;69234;47.446;21.636;2023-04-25T02:17:53;99448.66;;;11.95;89.67
79752;BME280;69234;47.446;21.636;2023-04-25T02:18:24;99448.50;;;11.97;88.96
79752;BME280;69234;47.446;21.636;2023-04-25T02:18:56;99447.47;;;11.98;89.42
79752;BME280;69234;47.446;21.636;2023-04-25T02:19:27;99449.50;;;11.96;88.81
79752;BME280;69234;47.446;21.636;2023-04-25T02:19:58;99450.34;;;11.96;89.76
79752;BME280;69234;47.446;21.636;2023-04-25T02:20:29;99441.44;;;11.96;88.94
79752;BME280;69234;47.446;21.636;2023-04-25T02:21:01;99444.28;;;11.94;88.79
79752;BME280;69234;47.446;21.636;2023-04-25T02:21:32;99446.63;;;11.97;88.87
79752;BME280;69234;47.446;21.636;2023-04-25T02:22:06;99439.59;;;11.96;89.23
79752;BME280;69234;47.446;21.636;2023-04-25T02:22:36;99444.13;;;11.96;89.39
79752;BME280;69234;47.446;21.636;2023-04-25T02:23:10;99446.81;;;11.96;89.74
79752;BME280;69234;47.446;21.636;2023-04-25T02:23:41;99435.53;;;11.92;88.74
79752;BME280;69234;47.446;21.636;2023-04-25T02:24:11;99436.38;;;11.93;89.80
79752;BME280;69234;47.446;21.636;2023-04-25T02:24:42;99445.28;;;11.93;89.74
79752;BME280;69234;47.446;21.636;2023-04-25T02:25:13;99440.75;;;11.94;89.75
79752;BME280;69234;47.446;21.636;2023-04-25T02:25:45;99438.22;;;11.92;89.38
79752;BME280;69234;47.446;21.636;2023-04-25T02:26:15;99439.06;;;11.93;89.07
79752;BME280;69234;47.446;21.636;2023-04-25T02:26:46;99438.88;;;11.94;89.14
79752;BME280;69234;47.446;21.636;2023-04-25T02:27:17;99437.72;;;11.88;89.05
79752;BME280;69234;47.446;21.636;2023-04-25T02:27:48;99442.22;;;11.88;89.01
79752;BME280;69234;47.446;21.636;2023-04-25T02:28:19;99442.78;;;11.92;89.39
79752;BME280;69234;47.446;21.636;2023-04-25T02:28:50;99444.59;;;11.91;89.51
79752;BME280;69234;47.446;21.636;2023-04-25T02:29:23;99441.91;;;11.91;89.19
79752;BME280;69234;47.446;21.636;2023-04-25T02:29:54;99436.84;;;11.88;89.21
79752;BME280;69234;47.446;21.636;2023-04-25T02:30:25;99436.00;;;11.87;89.12
79752;BME280;69234;47.446;21.636;2023-04-25T02:30:55;99438.88;;;11.86;88.95
79752;BME280;69234;47.446;21.636;2023-04-25T02:31:28;99443.94;;;11.89;89.57
79752;BME280;69234;47.446;21.636;2023-04-25T02:31:59;99439.88;;;11.85;89.16
79752;BME280;69234;47.446;21.636;2023-04-25T02:32:30;99438.03;;;11.85;90.02
79752;BME280;69234;47.446;21.636;2023-04-25T02:33:01;99436.31;;;11.84;89.09
79752;BME280;69234;47.446;21.636;2023-04-25T02:33:33;99443.56;;;11.84;89.37
79752;BME280;69234;47.446;21.636;2023-04-25T02:34:04;99435.63;;;11.82;89.77
79752;BME280;69234;47.446;21.636;2023-04-25T02:34:35;99438.31;;;11.82;89.97
79752;BME280;69234;47.446;21.636;2023-04-25T02:35:07;99447.41;;;11.81;89.57
79752;BME280;69234;47.446;21.636;2023-04-25T02:35:38;99433.44;;;11.78;90.07
79752;BME280;69234;47.446;21.636;2023-04-25T02:36:09;99443.19;;;11.79;89.66
79752;BME280;69234;47.446;21.636;2023-04-25T02:36:40;99444.03;;;11.79;89.59
79752;BME280;69234;47.446;21.636;2023-04-25T02:37:12;99441.31;;;11.79;89.30
79752;BME280;69234;47.446;21.636;2023-04-25T02:37:43;99431.72;;;11.77;90.14
79752;BME280;69234;47.446;21.636;2023-04-25T02:38:13;99438.81;;;11.78;89.46
79752;BME280;69234;47.446;21.636;2023-04-25T02:38:45;99434.78;;;11.82;90.10
79752;BME280;69234;47.446;21.636;2023-04-25T02:39:16;99433.94;;;11.81;89.44
79752;BME280;69234;47.446;21.636;2023-04-25T02:39:47;99440.88;;;11.84;89.29
79752;BME280;69234;47.446;21.636;2023-04-25T02:40:17;99439.16;;;11.83;89.71
79752;BME280;69234;47.446;21.636;2023-04-25T02:40:48;99443.84;;;11.81;89.54
79752;BME280;69234;47.446;21.636;2023-04-25T02:41:19;99434.78;;;11.82;89.18
79752;BME280;69234;47.446;21.636;2023-04-25T02:41:52;99430.38;;;11.81;89.86
79752;BME280;69234;47.446;21.636;2023-04-25T02:42:23;99434.09;;;11.80;90.17
79752;BME280;69234;47.446;21.636;2023-04-25T02:42:54;99433.25;;;11.79;89.56
79752;BME280;69234;47.446;21.636;2023-04-25T02:43:25;99432.41;;;11.79;89.84
79752;BME280;69234;47.446;21.636;2023-04-25T02:43:56;99443.31;;;11.77;89.31
79752;BME280;69234;47.446;21.636;2023-04-25T02:44:27;99421.97;;;11.76;89.69
79752;BME280;69234;47.446;21.636;2023-04-25T02:44:57;99431.72;;;11.77;89.59
79752;BME280;69234;47.446;21.636;2023-04-25T02:45:28;99433.44;;;11.78;90.42
79752;BME280;69234;47.446;21.636;2023-04-25T02:46:00;99430.75;;;11.78;89.72
79752;BME280;69234;47.446;21.636;2023-04-25T02:46:31;99438.97;;;11.76;90.05
79752;BME280;69234;47.446;21.636;2023-04-25T02:47:03;99427.34;;;11.76;90.33
79752;BME280;69234;47.446;21.636;2023-04-25T02:47:34;99424.50;;;11.77;90.07
79752;BME280;69234;47.446;21.636;2023-04-25T02:48:05;99437.47;;;11.82;89.48